createdAt,value
2018-12-01T00:00:05.836Z,50.63
2018-12-01T00:02:32.729Z,50.85
2018-12-01T00:04:59.634Z,50.57
2018-12-01T00:07:26.526Z,50.07
2018-12-01T00:09:53.439Z,50.73
2018-12-01T00:12:20.335Z,50.93
2018-12-01T00:14:47.230Z,50.20
2018-12-01T00:17:14.127Z,50.87
2018-12-01T00:19:41.010Z,50.32
2018-12-01T00:22:07.936Z,50.14
2018-12-01T00:24:34.835Z,50.64
2018-12-01T00:27:01.754Z,50.71
2018-12-01T00:29:28.647Z,50.40
2018-12-01T00:31:55.546Z,50.88
2018-12-01T00:34:22.444Z,50.46
2018-12-01T00:36:49.368Z,50.66
2018-12-01T00:39:16.255Z,50.88
2018-12-01T00:41:43.138Z,50.43
2018-12-01T00:44:10.031Z,50.72
2018-12-01T00:46:36.932Z,50.88
2018-12-01T00:49:03.819Z,50.33
2018-12-01T00:51:30.715Z,51.11
2018-12-01T00:53:57.603Z,50.25
2018-12-01T00:56:24.494Z,50.46
2018-12-01T00:58:51.391Z,50.38
2018-12-01T01:01:18.278Z,50.46
2018-12-01T01:03:45.183Z,50.77
2018-12-01T01:06:12.082Z,50.90
2018-12-01T01:08:38.976Z,51.02
2018-12-01T01:11:05.862Z,50.98
2018-12-01T01:13:32.773Z,51.08
2018-12-01T01:15:59.662Z,50.78
2018-12-01T01:18:26.556Z,50.37
2018-12-01T01:20:53.442Z,50.63
2018-12-01T01:23:20.339Z,50.96
2018-12-01T01:25:47.279Z,50.51
2018-12-01T01:28:14.188Z,50.26
2018-12-01T01:30:41.085Z,50.97
2018-12-01T01:33:07.992Z,51.16
2018-12-01T01:35:34.874Z,50.38
2018-12-01T01:38:01.784Z,50.47
2018-12-01T01:40:28.693Z,50.36
2018-12-01T01:42:55.592Z,50.81
2018-12-01T01:45:22.482Z,51.36
2018-12-01T01:47:49.375Z,50.53
2018-12-01T01:50:16.268Z,51.25
2018-12-01T01:52:43.199Z,50.71
2018-12-01T01:55:10.099Z,50.51
2018-12-01T01:57:37.004Z,50.71
2018-12-01T02:00:03.905Z,51.04
2018-12-01T02:02:30.807Z,51.31
2018-12-01T02:04:57.706Z,50.26
2018-12-01T02:07:24.603Z,50.89
2018-12-01T02:09:51.490Z,51.11
2018-12-01T02:12:18.371Z,50.69
2018-12-01T02:14:45.273Z,51.07
2018-12-01T02:17:12.177Z,51.24
2018-12-01T02:19:39.077Z,50.82
2018-12-01T02:22:05.995Z,51.22
2018-12-01T02:24:32.887Z,51.38
2018-12-01T02:26:59.780Z,51.26
2018-12-01T02:29:26.708Z,51.30
2018-12-01T02:31:53.595Z,51.36
2018-12-01T02:34:20.492Z,51.18
2018-12-01T02:36:47.383Z,51.29
2018-12-01T02:39:14.280Z,50.81
2018-12-01T02:41:41.176Z,51.04
2018-12-01T02:44:08.074Z,50.85
2018-12-01T02:46:34.967Z,51.31
2018-12-01T02:49:01.855Z,51.27
2018-12-01T02:51:28.748Z,50.88
2018-12-01T02:53:55.639Z,50.74
2018-12-01T02:56:22.541Z,51.45
2018-12-01T02:58:49.440Z,51.56
2018-12-01T03:01:16.335Z,51.54
2018-12-01T03:03:43.230Z,51.53
2018-12-01T03:06:10.127Z,51.46
2018-12-01T03:08:37.019Z,51.35
2018-12-01T03:11:03.920Z,50.91
2018-12-01T03:13:30.813Z,51.57
2018-12-01T03:15:57.694Z,51.54
2018-12-01T03:18:24.578Z,51.55
2018-12-01T03:20:51.459Z,50.79
2018-12-01T03:23:18.358Z,51.50
2018-12-01T03:25:45.316Z,51.61
2018-12-01T03:28:12.225Z,50.92
2018-12-01T03:30:39.196Z,51.47
2018-12-01T03:33:06.115Z,51.31
2018-12-01T03:35:32.999Z,50.91
2018-12-01T03:37:59.890Z,51.44
2018-12-01T03:40:26.843Z,51.10
2018-12-01T03:42:53.744Z,50.94
2018-12-01T03:45:20.699Z,51.58
2018-12-01T03:47:47.619Z,50.98
2018-12-01T03:50:18.724Z,50.54
2018-12-01T03:52:45.614Z,51.50
2018-12-01T03:55:12.494Z,51.55
2018-12-01T03:57:39.415Z,51.05
2018-12-01T04:00:06.303Z,51.20
2018-12-01T04:02:33.228Z,51.57
2018-12-01T04:05:00.123Z,50.85
2018-12-01T04:07:27.091Z,50.91
2018-12-01T04:09:54.008Z,50.93
2018-12-01T04:12:20.924Z,51.70
2018-12-01T04:14:47.834Z,51.26
2018-12-01T04:17:14.717Z,51.74
2018-12-01T04:19:41.622Z,51.51
2018-12-01T04:22:08.502Z,51.65
2018-12-01T04:24:35.391Z,51.69
2018-12-01T04:27:02.308Z,51.79
2018-12-01T04:29:29.224Z,51.13
2018-12-01T04:31:56.111Z,51.46
2018-12-01T04:34:23.880Z,51.61
2018-12-01T04:36:50.792Z,51.79
2018-12-01T04:39:17.696Z,51.48
2018-12-01T04:41:44.586Z,50.89
2018-12-01T04:44:11.528Z,51.90
2018-12-01T04:46:38.455Z,51.22
2018-12-01T04:49:05.390Z,51.28
2018-12-01T04:51:32.292Z,51.44
2018-12-01T04:53:59.178Z,51.28
2018-12-01T04:56:26.084Z,51.64
2018-12-01T04:58:52.967Z,51.67
2018-12-01T05:01:19.879Z,51.87
2018-12-01T05:03:46.772Z,51.70
2018-12-01T05:06:13.668Z,51.80
2018-12-01T05:08:40.572Z,52.01
2018-12-01T05:11:07.472Z,51.67
2018-12-01T05:13:34.379Z,51.65
2018-12-01T05:16:01.276Z,51.61
2018-12-01T05:18:28.169Z,51.68
2018-12-01T05:20:55.078Z,51.25
2018-12-01T05:23:21.978Z,51.86
2018-12-01T05:25:48.886Z,51.94
2018-12-01T05:28:15.771Z,51.83
2018-12-01T05:30:42.663Z,51.88
2018-12-01T05:33:09.554Z,51.75
2018-12-01T05:35:36.455Z,51.97
2018-12-01T05:38:03.371Z,51.37
2018-12-01T05:40:30.353Z,52.15
2018-12-01T05:42:57.253Z,51.44
2018-12-01T05:45:24.153Z,52.19
2018-12-01T05:47:51.077Z,52.17
2018-12-01T05:50:24.868Z,51.35
2018-12-01T05:52:51.786Z,52.25
2018-12-01T05:55:18.679Z,52.10
2018-12-01T05:57:45.571Z,52.01
2018-12-01T06:00:12.463Z,52.08
2018-12-01T06:02:39.350Z,51.74
2018-12-01T06:05:06.271Z,51.59
2018-12-01T06:07:33.163Z,52.23
2018-12-01T06:10:00.168Z,52.19
2018-12-01T06:12:27.073Z,51.23
2018-12-01T06:14:53.967Z,51.97
2018-12-01T06:17:20.868Z,51.86
2018-12-01T06:19:47.779Z,52.18
2018-12-01T06:22:14.706Z,52.12
2018-12-01T06:24:41.590Z,51.47
2018-12-01T06:27:08.499Z,51.33
2018-12-01T06:29:35.398Z,52.27
2018-12-01T06:32:02.301Z,51.52
2018-12-01T06:34:29.196Z,52.28
2018-12-01T06:36:56.095Z,52.37
2018-12-01T06:39:23.067Z,51.65
2018-12-01T06:41:49.950Z,51.63
2018-12-01T06:44:16.844Z,51.73
2018-12-01T06:46:43.726Z,52.39
2018-12-01T06:49:10.629Z,52.44
2018-12-01T06:51:37.527Z,51.67
2018-12-01T06:54:04.468Z,51.63
2018-12-01T06:56:31.359Z,51.99
2018-12-01T06:58:58.252Z,52.30
2018-12-01T07:01:25.172Z,52.01
2018-12-01T07:03:52.059Z,52.19
2018-12-01T07:06:18.965Z,52.27
2018-12-01T07:08:45.893Z,51.79
2018-12-01T07:11:12.847Z,51.98
2018-12-01T07:13:39.786Z,52.31
2018-12-01T07:16:07.103Z,52.42
2018-12-01T07:18:34.057Z,52.34
2018-12-01T07:21:01.365Z,51.67
2018-12-01T07:23:28.401Z,52.30
2018-12-01T07:25:55.381Z,51.92
2018-12-01T07:28:22.437Z,52.40
2018-12-01T07:30:49.419Z,52.34
2018-12-01T07:33:16.464Z,52.46
2018-12-01T07:35:43.535Z,52.04
2018-12-01T07:38:10.563Z,52.07
2018-12-01T07:40:37.874Z,52.45
2018-12-01T07:43:04.880Z,51.68
2018-12-01T07:45:31.970Z,52.51
2018-12-01T07:47:58.957Z,52.51
2018-12-01T07:50:25.987Z,51.95
2018-12-01T07:52:52.970Z,51.71
2018-12-01T07:55:20.020Z,52.06
2018-12-01T07:57:47.030Z,52.21
2018-12-01T08:00:14.044Z,52.13
2018-12-01T08:02:41.090Z,51.93
2018-12-01T08:05:08.012Z,51.02
2018-12-01T08:07:34.903Z,52.06
2018-12-01T08:10:02.040Z,52.48
2018-12-01T08:12:29.067Z,52.63
2018-12-01T08:14:55.997Z,52.56
2018-12-01T08:17:22.891Z,51.72
2018-12-01T08:19:49.783Z,52.17
2018-12-01T08:22:16.688Z,52.33
2018-12-01T08:24:43.586Z,52.74
2018-12-01T08:27:10.511Z,51.95
2018-12-01T08:29:37.418Z,52.50
2018-12-01T08:32:04.325Z,51.80
2018-12-01T08:34:31.280Z,52.14
2018-12-01T08:36:58.181Z,51.72
2018-12-01T08:39:25.095Z,51.57
2018-12-01T08:41:51.989Z,51.57
2018-12-01T08:44:18.878Z,52.30
2018-12-01T08:46:45.779Z,51.83
2018-12-01T08:49:12.727Z,52.68
2018-12-01T08:51:39.624Z,52.31
2018-12-01T08:54:06.523Z,52.22
2018-12-01T08:56:33.453Z,52.26
2018-12-01T08:59:00.356Z,52.04
2018-12-01T09:01:27.243Z,52.20
2018-12-01T09:03:54.143Z,52.07
2018-12-01T09:06:21.048Z,52.07
2018-12-01T09:08:48.016Z,52.10
2018-12-01T09:11:14.912Z,52.03
2018-12-01T09:13:41.816Z,52.10
2018-12-01T09:16:08.717Z,51.98
2018-12-01T09:18:35.610Z,51.91
2018-12-01T09:21:02.529Z,51.47
2018-12-01T09:23:29.428Z,52.46
2018-12-01T09:25:56.320Z,51.60
2018-12-01T09:28:23.206Z,51.43
2018-12-01T09:30:50.094Z,52.22
2018-12-01T09:33:16.988Z,52.02
2018-12-01T09:35:43.915Z,52.47
2018-12-01T09:38:10.827Z,51.55
2018-12-01T09:40:37.725Z,52.32
2018-12-01T09:43:04.627Z,51.99
2018-12-01T09:45:31.523Z,51.96
2018-12-01T09:47:58.434Z,51.34
2018-12-01T09:50:25.815Z,51.34
2018-12-01T09:52:53.815Z,51.41
2018-12-01T09:55:27.741Z,51.96
2018-12-01T09:57:54.685Z,51.48
2018-12-01T10:00:21.583Z,51.95
2018-12-01T10:02:48.475Z,51.31
2018-12-01T10:05:15.371Z,51.99
2018-12-01T10:07:42.280Z,51.92
2018-12-01T10:10:09.193Z,51.44
2018-12-01T10:12:36.153Z,51.39
2018-12-01T10:15:03.124Z,51.97
2018-12-01T10:17:30.106Z,51.43
2018-12-01T10:19:57.040Z,51.61
2018-12-01T10:22:23.958Z,52.45
2018-12-01T10:24:50.873Z,52.54
2018-12-01T10:27:17.763Z,52.40
2018-12-01T10:29:44.760Z,51.70
2018-12-01T10:32:11.670Z,52.06
2018-12-01T10:34:38.739Z,52.17
2018-12-01T10:37:05.687Z,52.22
2018-12-01T10:39:32.601Z,51.44
2018-12-01T10:42:03.646Z,51.42
2018-12-01T10:44:26.668Z,52.14
2018-12-01T10:46:53.698Z,47.30
2018-12-01T10:49:20.591Z,48.49
2018-12-01T10:51:47.609Z,47.96
2018-12-01T10:54:14.619Z,47.63
2018-12-01T10:56:41.540Z,48.30
2018-12-01T10:59:08.569Z,49.25
2018-12-01T11:01:39.678Z,49.87
2018-12-01T11:04:11.992Z,49.58
2018-12-01T11:06:38.959Z,49.61
2018-12-01T11:09:05.864Z,49.53
2018-12-01T11:11:32.780Z,49.88
2018-12-01T11:13:59.680Z,50.37
2018-12-01T11:16:26.586Z,50.44
2018-12-01T11:18:53.512Z,50.57
2018-12-01T11:21:20.460Z,50.42
2018-12-01T11:23:47.369Z,50.98
2018-12-01T11:26:14.265Z,51.30
2018-12-01T11:28:41.161Z,52.26
2018-12-01T11:31:08.062Z,51.76
2018-12-01T11:33:34.958Z,52.25
2018-12-01T11:36:01.849Z,53.39
2018-12-01T11:38:28.777Z,53.06
2018-12-01T11:40:55.671Z,53.38
2018-12-01T11:43:22.695Z,52.80
2018-12-01T11:45:49.610Z,53.28
2018-12-01T11:48:16.519Z,53.31
2018-12-01T11:50:43.430Z,53.09
2018-12-01T11:53:10.341Z,53.86
2018-12-01T11:55:37.226Z,53.11
2018-12-01T11:58:04.147Z,53.50
2018-12-01T12:00:31.056Z,53.52
2018-12-01T12:02:57.942Z,52.80
2018-12-01T12:05:24.837Z,53.26
2018-12-01T12:07:51.741Z,53.00
2018-12-01T12:10:18.639Z,52.96
2018-12-01T12:12:45.540Z,52.67
2018-12-01T12:15:12.512Z,53.15
2018-12-01T12:17:39.404Z,52.15
2018-12-01T12:20:06.302Z,52.37
2018-12-01T12:22:33.192Z,52.21
2018-12-01T12:25:00.092Z,51.12
2018-12-01T12:27:27.007Z,51.85
2018-12-01T12:29:53.912Z,51.70
2018-12-01T12:32:20.790Z,52.02
2018-12-01T12:34:47.683Z,51.80
2018-12-01T12:37:14.602Z,51.14
2018-12-01T12:39:41.504Z,51.17
2018-12-01T12:42:08.407Z,52.40
2018-12-01T12:44:35.321Z,52.74
2018-12-01T12:47:02.227Z,52.90
2018-12-01T12:49:29.257Z,53.15
2018-12-01T12:51:56.151Z,51.43
2018-12-01T12:54:23.075Z,52.80
2018-12-01T12:56:50.057Z,52.48
2018-12-01T12:59:16.959Z,52.41
2018-12-01T13:01:43.848Z,52.94
2018-12-01T13:04:10.763Z,53.11
2018-12-01T13:06:37.665Z,52.60
2018-12-01T13:09:04.656Z,53.43
2018-12-01T13:11:31.560Z,52.54
2018-12-01T13:13:58.479Z,53.36
2018-12-01T13:16:25.380Z,53.40
2018-12-01T13:18:52.320Z,53.03
2018-12-01T13:21:19.221Z,52.38
2018-12-01T13:23:46.107Z,53.20
2018-12-01T13:26:13.029Z,53.23
2018-12-01T13:28:39.933Z,52.57
2018-12-01T13:31:06.831Z,52.96
2018-12-01T13:33:33.736Z,52.52
2018-12-01T13:36:00.629Z,52.93
2018-12-01T13:38:27.534Z,52.57
2018-12-01T13:40:54.453Z,52.44
2018-12-01T13:43:21.377Z,52.35
2018-12-01T13:45:48.279Z,52.76
2018-12-01T13:48:15.183Z,53.01
2018-12-01T13:50:42.088Z,53.06
2018-12-01T13:53:08.980Z,52.70
2018-12-01T13:55:35.875Z,52.89
2018-12-01T13:58:02.798Z,52.24
2018-12-01T14:00:29.698Z,52.72
2018-12-01T14:02:56.601Z,52.90
2018-12-01T14:05:23.557Z,52.44
2018-12-01T14:07:50.447Z,53.01
2018-12-01T14:10:17.346Z,52.91
2018-12-01T14:12:44.335Z,52.83
2018-12-01T14:15:11.240Z,53.00
2018-12-01T14:17:38.171Z,52.93
2018-12-01T14:20:05.080Z,52.22
2018-12-01T14:22:31.985Z,52.79
2018-12-01T14:24:58.880Z,52.89
2018-12-01T14:27:25.772Z,53.09
2018-12-01T14:29:52.682Z,52.18
2018-12-01T14:32:19.583Z,52.84
2018-12-01T14:34:46.493Z,52.24
2018-12-01T14:37:13.388Z,51.85
2018-12-01T14:39:40.303Z,45.65
2018-12-01T14:42:07.217Z,49.94
2018-12-01T14:44:34.111Z,51.56
2018-12-01T14:47:01.020Z,51.02
2018-12-01T14:49:27.915Z,51.22
2018-12-01T14:51:54.824Z,52.87
2018-12-01T14:54:21.720Z,52.75
2018-12-01T14:56:48.614Z,53.79
2018-12-01T14:59:15.524Z,54.10
2018-12-01T15:04:27.842Z,54.96
2018-12-01T15:06:54.768Z,54.88
2018-12-01T15:09:21.695Z,54.45
2018-12-01T15:11:48.592Z,56.15
2018-12-01T15:14:15.533Z,55.94
2018-12-01T15:16:42.428Z,56.03
2018-12-01T15:19:09.319Z,55.57
2018-12-01T15:21:36.231Z,51.55
2018-12-01T15:24:03.133Z,50.12
2018-12-01T15:26:30.047Z,48.82
2018-12-01T15:28:56.935Z,47.74
2018-12-01T15:31:23.839Z,47.83
2018-12-01T15:33:51.116Z,48.35
2018-12-01T15:36:18.010Z,47.94
2018-12-01T15:38:44.928Z,48.04
2018-12-01T15:41:11.914Z,49.05
2018-12-01T15:43:38.807Z,49.13
2018-12-01T15:46:05.720Z,48.69
2018-12-01T15:48:32.617Z,49.68
2018-12-01T15:50:59.557Z,49.56
2018-12-01T15:53:26.445Z,49.27
2018-12-01T15:55:59.047Z,49.28
2018-12-01T15:58:25.938Z,49.73
2018-12-01T16:00:52.833Z,49.31
2018-12-01T16:03:20.150Z,49.57
2018-12-01T16:05:47.096Z,50.03
2018-12-01T16:08:14.084Z,50.20
2018-12-01T16:10:40.976Z,50.22
2018-12-01T16:13:07.884Z,49.48
2018-12-01T16:15:34.797Z,49.62
2018-12-01T16:18:01.716Z,50.07
2018-12-01T16:20:28.703Z,50.19
2018-12-01T16:22:55.624Z,49.48
2018-12-01T16:25:22.650Z,49.37
2018-12-01T16:27:49.570Z,50.37
2018-12-01T16:30:16.679Z,50.28
2018-12-01T16:32:43.592Z,50.98
2018-12-01T16:35:10.493Z,50.23
2018-12-01T16:37:37.400Z,51.28
2018-12-01T16:40:04.310Z,51.20
2018-12-01T16:42:31.208Z,51.22
2018-12-01T16:44:58.141Z,50.64
2018-12-01T16:47:25.042Z,51.05
2018-12-01T16:49:51.940Z,50.58
2018-12-01T16:52:18.842Z,51.51
2018-12-01T16:54:45.768Z,51.13
2018-12-01T16:57:12.661Z,50.78
2018-12-01T16:59:39.560Z,50.96
2018-12-01T17:02:06.460Z,50.74
2018-12-01T17:04:33.367Z,50.86
2018-12-01T17:07:00.268Z,50.94
2018-12-01T17:09:27.166Z,51.46
2018-12-01T17:11:54.062Z,51.47
2018-12-01T17:14:20.951Z,50.82
2018-12-01T17:16:47.952Z,51.27
2018-12-01T17:19:14.843Z,51.58
2018-12-01T17:21:41.743Z,51.47
2018-12-01T17:24:08.644Z,51.14
2018-12-01T17:26:36.493Z,50.98
2018-12-01T17:29:03.556Z,51.24
2018-12-01T17:31:30.450Z,51.13
2018-12-01T17:33:57.374Z,51.47
2018-12-01T17:36:24.275Z,51.54
2018-12-01T17:38:51.170Z,50.99
2018-12-01T17:41:18.079Z,51.22
2018-12-01T17:43:44.968Z,51.26
2018-12-01T17:46:11.873Z,50.85
2018-12-01T17:48:38.792Z,51.62
2018-12-01T17:51:05.694Z,51.22
2018-12-01T17:53:32.599Z,51.36
2018-12-01T17:55:59.500Z,51.11
2018-12-01T17:58:26.409Z,51.46
2018-12-01T18:00:53.324Z,51.18
2018-12-01T18:03:20.283Z,51.59
2018-12-01T18:05:47.183Z,51.31
2018-12-01T18:08:14.075Z,51.79
2018-12-01T18:10:41.053Z,51.81
2018-12-01T18:13:07.955Z,51.52
2018-12-01T18:15:34.865Z,51.10
2018-12-01T18:18:01.791Z,51.88
2018-12-01T18:20:28.675Z,51.53
2018-12-01T18:22:55.594Z,52.06
2018-12-01T18:25:22.511Z,52.21
2018-12-01T18:27:49.422Z,51.80
2018-12-01T18:30:16.318Z,52.35
2018-12-01T18:32:43.229Z,52.59
2018-12-01T18:35:10.172Z,52.06
2018-12-01T18:37:37.076Z,51.76
2018-12-01T18:40:03.981Z,51.14
2018-12-01T18:42:30.891Z,52.21
2018-12-01T18:44:57.809Z,52.37
2018-12-01T18:47:24.747Z,52.07
2018-12-01T18:49:51.660Z,51.44
2018-12-01T18:52:18.552Z,51.60
2018-12-01T18:54:45.450Z,51.66
2018-12-01T18:57:12.376Z,51.65
2018-12-01T18:59:39.279Z,52.29
2018-12-01T19:02:06.179Z,51.63
2018-12-01T19:04:33.081Z,51.89
2018-12-01T19:06:59.999Z,51.61
2018-12-01T19:09:26.907Z,52.28
2018-12-01T19:11:53.826Z,52.92
2018-12-01T19:14:20.727Z,52.95
2018-12-01T19:16:47.631Z,52.92
2018-12-01T19:19:14.535Z,53.65
2018-12-01T19:21:41.435Z,53.76
2018-12-01T19:24:08.330Z,53.81
2018-12-01T19:26:35.220Z,53.87
2018-12-01T19:29:02.148Z,53.21
2018-12-01T19:31:29.075Z,53.39
2018-12-01T19:33:56.056Z,53.02
2018-12-01T19:36:22.953Z,53.77
2018-12-01T19:38:49.911Z,53.35
2018-12-01T19:41:16.815Z,52.99
2018-12-01T19:43:43.827Z,53.76
2018-12-01T19:46:10.740Z,53.09
2018-12-01T19:48:37.632Z,53.63
2018-12-01T19:51:04.570Z,53.00
2018-12-01T19:53:31.478Z,53.57
2018-12-01T19:55:58.404Z,52.94
2018-12-01T19:58:25.293Z,53.70
2018-12-01T20:00:52.174Z,53.20
2018-12-01T20:03:19.342Z,52.76
2018-12-01T20:05:46.253Z,53.45
2018-12-01T20:08:13.156Z,52.77
2018-12-01T20:10:40.094Z,53.45
2018-12-01T20:13:07.056Z,53.35
2018-12-01T20:15:33.947Z,53.03
2018-12-01T20:18:00.872Z,53.60
2018-12-01T20:20:27.788Z,52.96
2018-12-01T20:22:54.681Z,53.05
2018-12-01T20:25:21.576Z,53.61
2018-12-01T20:27:48.489Z,53.52
2018-12-01T20:30:15.471Z,53.58
2018-12-01T20:32:42.366Z,53.55
2018-12-01T20:35:09.295Z,53.58
2018-12-01T20:37:36.178Z,52.98
2018-12-01T20:40:03.088Z,53.10
2018-12-01T20:42:30.018Z,53.20
2018-12-01T20:44:56.927Z,52.96
2018-12-01T20:47:24.091Z,53.08
2018-12-01T20:49:50.991Z,53.41
2018-12-01T20:52:17.920Z,53.66
2018-12-01T20:54:45.063Z,53.70
2018-12-01T20:57:11.974Z,53.12
2018-12-01T20:59:38.859Z,53.38
2018-12-01T21:04:44.567Z,53.67
2018-12-01T21:07:11.451Z,53.13
2018-12-01T21:09:38.357Z,53.05
2018-12-01T21:12:05.303Z,53.29
2018-12-01T21:14:32.232Z,52.97
2018-12-01T21:16:59.128Z,53.67
2018-12-01T21:19:26.040Z,53.17
2018-12-01T21:21:52.942Z,53.74
2018-12-01T21:24:19.937Z,53.52
2018-12-01T21:26:46.891Z,53.70
2018-12-01T21:29:13.799Z,53.78
2018-12-01T21:31:40.737Z,53.70
2018-12-01T21:34:07.687Z,53.57
2018-12-01T21:36:34.585Z,53.31
2018-12-01T21:39:01.488Z,52.96
2018-12-01T21:41:28.380Z,53.21
2018-12-01T21:43:55.289Z,52.90
2018-12-01T21:46:22.239Z,53.45
2018-12-01T21:48:49.211Z,53.30
2018-12-01T21:51:16.112Z,53.58
2018-12-01T21:53:43.031Z,53.45
2018-12-01T21:56:10.027Z,52.96
2018-12-01T21:58:36.918Z,53.54
2018-12-01T22:01:03.827Z,53.64
2018-12-01T22:03:30.706Z,53.74
2018-12-01T22:05:57.631Z,53.20
2018-12-01T22:08:24.518Z,53.91
2018-12-01T22:10:51.476Z,53.67
2018-12-01T22:13:18.371Z,53.88
2018-12-01T22:15:45.663Z,53.34
2018-12-01T22:18:12.570Z,53.66
2018-12-01T22:20:39.458Z,53.18
2018-12-01T22:23:06.401Z,53.77
2018-12-01T22:25:33.298Z,52.94
2018-12-01T22:28:00.216Z,53.94
2018-12-01T22:30:27.108Z,53.05
2018-12-01T22:32:54.103Z,53.09
2018-12-01T22:35:21.042Z,53.32
2018-12-01T22:37:47.975Z,53.98
2018-12-01T22:40:14.871Z,53.19
2018-12-01T22:42:41.796Z,53.15
2018-12-01T22:45:09.074Z,53.75
2018-12-01T22:47:36.212Z,53.84
2018-12-01T22:50:03.328Z,53.89
2018-12-01T22:52:30.346Z,53.18
2018-12-01T22:54:57.269Z,53.32
2018-12-01T22:57:24.407Z,53.70
2018-12-01T22:59:51.468Z,53.45
2018-12-01T23:02:18.652Z,53.25
2018-12-01T23:04:45.692Z,53.51
2018-12-01T23:07:12.758Z,53.06
2018-12-01T23:09:39.901Z,53.68
2018-12-01T23:12:06.860Z,53.83
2018-12-01T23:14:33.763Z,53.34
2018-12-01T23:17:00.677Z,53.88
2018-12-01T23:19:27.572Z,54.00
2018-12-01T23:21:54.518Z,53.94
2018-12-01T23:24:21.601Z,53.93
2018-12-01T23:26:48.502Z,53.32
2018-12-01T23:29:15.465Z,53.41
2018-12-01T23:31:42.816Z,53.60
2018-12-01T23:34:09.738Z,53.94
2018-12-01T23:36:36.626Z,53.23
2018-12-01T23:39:03.969Z,53.78
2018-12-01T23:41:30.871Z,53.75
2018-12-01T23:43:57.790Z,53.23
2018-12-01T23:46:24.705Z,53.83
2018-12-01T23:48:51.631Z,53.27
2018-12-01T23:51:18.520Z,53.94
2018-12-01T23:53:45.436Z,52.82
2018-12-01T23:56:12.331Z,53.85
2018-12-01T23:58:39.244Z,53.16
